Aérodrome :
LOGIN :

S'inscrire | Disclaimer

   EN    FR    IT 

 










Légende :    VFR   VFR Marginal   IFR   IFR Intensif   IFR Très Intensif
Visi : 
Plafond : 
>= 8 km
>= 3000ft
5 à 8 km
1000 à 3000 ft
1500m à 5 km
500 à 1000 ft
800 à 1500m
200 à 500 ft
< 800m
< 200 ft
Symboles :   Orages  Brouillard  Fortes neiges  Fortes précipitations  Vent > 20 kt
SIGMETs :   Divers  Orages  Givrage  Turbulence  Onde Orograph.  Cendres Volcan.






- Altitude de l'aérodrome : 348 ft
- Code IATA : TSR


LRTR - Timisoara

DERNIER METAR :
  • 060930Z 16005KT 1000 R11/1700U R29/1900U BR FEW001 BKN002 OVC004 M01/M01 Q1027 R11/190095 BECMG 1500

METARs EXPIRÉS :
  • 060900Z 15006KT 0800 R11/1300U R29/1400U FZFG FEW001 OVC002 M01/M01 Q1027 R11/190095 NOSIG
  • 060830Z 15006KT 0600 R11/1100D R29/1200N FZFG FEW001 OVC002 M01/M01 Q1027 R11/190095 NOSIG
  • 060800Z 13005KT 0800 R11/1500D R29/1400D FZFG FEW001 OVC002 M01/M01 Q1027 R11/190095 TEMPO 0600 FZFG
  • 060730Z 14005KT 0600 R11/1700D R29/1400N FZFG FEW001 OVC002 M01/M01 Q1027 R11/190095 TEMPO 0800

TAF AMD TAF LRTR
Valide du 06 à 09h jusqu'au 07 à 06h UTC


060911Z 0609/0706 VRB04KT 1500 BR BKN005
TEMPO 0609/0610 0800 FZFG OVC002
BECMG 0610/0612 3000 BKN010
BECMG 0615/0617 1500 BR BKN005
PROB30
TEMPO 0620/0624 0600 FZFG OVC002
BECMG 0703/0705 3000 -RA BKN010 OVC040



MET'MAP, la Météo Aéronautique d'un coup d'oeil ! - Copyright ORBIFLY Décembre 2007 - Disclaimer

ORBIFLY MET'MAP TEAM :

Programmation & Développement : Alexandra Zaïnal
Sur une idée originale de : Baudouin d'Aumeries
Assistance à la programmation : Marc-Olivier Méhu
Soutien technique & logistique : Manuel Goepfert

Contact : metmap@orbifly.com




SOURCES & CREDITS :

   NOAA